createdAt,value
2023-04-24T00:01:23.013Z,36.65
2023-04-24T00:04:28.562Z,37.03
2023-04-24T00:07:34.510Z,31.20
2023-04-24T00:10:40.747Z,31.85
2023-04-24T00:13:46.667Z,31.93
2023-04-24T00:16:53.726Z,34.25
2023-04-24T00:19:59.124Z,28.85
2023-04-24T00:23:05.923Z,33.70
2023-04-24T00:26:11.076Z,28.67
2023-04-24T00:29:17.052Z,28.15
2023-04-24T00:32:23.525Z,26.20
2023-04-24T00:35:29.434Z,25.02
2023-04-24T00:38:34.457Z,26.60
2023-04-24T00:41:40.817Z,18.70
2023-04-24T00:44:46.787Z,18.55
2023-04-24T00:47:53.426Z,16.80
2023-04-24T00:51:01.820Z,16.12
2023-04-24T00:54:08.209Z,16.02
2023-04-24T00:57:13.987Z,16.73
2023-04-24T01:00:23.148Z,15.40
2023-04-24T01:03:29.687Z,14.23
2023-04-24T01:06:36.128Z,16.67
2023-04-24T01:09:41.721Z,15.95
2023-04-24T01:12:48.678Z,16.87
2023-04-24T01:15:55.108Z,17.15
2023-04-24T01:19:00.881Z,11.43
2023-04-24T01:22:10.420Z,14.13
2023-04-24T01:25:16.527Z,15.40
2023-04-24T01:28:23.366Z,13.05
2023-04-24T01:31:29.867Z,13.00
2023-04-24T01:34:35.761Z,14.55
2023-04-24T01:37:40.973Z,13.53
2023-04-24T01:40:47.904Z,14.60
2023-04-24T01:43:53.754Z,15.55
2023-04-24T01:47:00.883Z,17.27
2023-04-24T01:50:08.448Z,14.85
2023-04-24T01:53:14.789Z,22.95
2023-04-24T01:56:20.736Z,14.95
2023-04-24T01:59:27.137Z,14.55
2023-04-24T02:02:35.596Z,15.78
2023-04-24T02:05:42.640Z,19.90
2023-04-24T02:08:53.932Z,14.98
2023-04-24T02:11:59.855Z,18.90
2023-04-24T02:15:07.305Z,21.82
2023-04-24T02:18:14.955Z,22.40
2023-04-24T02:21:20.944Z,24.82
2023-04-24T02:24:28.295Z,19.07
2023-04-24T02:27:34.168Z,18.85
2023-04-24T02:30:39.011Z,21.35
2023-04-24T02:33:44.680Z,14.73
2023-04-24T02:36:50.325Z,20.97
2023-04-24T02:39:56.166Z,18.35
2023-04-24T02:43:02.981Z,19.37
2023-04-24T02:46:10.145Z,17.85
2023-04-24T02:49:17.232Z,21.35
2023-04-24T02:52:22.415Z,17.42
2023-04-24T02:55:28.129Z,19.35
2023-04-24T02:58:34.263Z,14.15
2023-04-24T03:01:39.684Z,17.30
2023-04-24T03:04:47.506Z,13.55
2023-04-24T03:07:55.218Z,15.58
2023-04-24T03:11:01.233Z,12.88
2023-04-24T03:14:07.280Z,13.03
2023-04-24T03:17:13.604Z,12.65
2023-04-24T03:20:20.194Z,19.45
2023-04-24T03:23:27.134Z,13.40
2023-04-24T03:26:32.969Z,16.85
2023-04-24T03:29:49.556Z,15.38
2023-04-24T03:32:58.717Z,21.25
2023-04-24T03:36:06.845Z,13.13
2023-04-24T03:39:14.498Z,22.02
2023-04-24T03:42:26.132Z,16.35
2023-04-24T03:45:32.509Z,15.28
2023-04-24T03:48:41.320Z,15.20
2023-04-24T03:51:50.163Z,16.93
2023-04-24T03:54:58.801Z,20.97
2023-04-24T03:58:05.871Z,26.50
2023-04-24T04:01:11.742Z,27.48
2023-04-24T04:04:25.136Z,27.30
2023-04-24T04:07:32.780Z,27.58
2023-04-24T04:10:38.164Z,24.77
2023-04-24T04:13:45.436Z,26.70
2023-04-24T04:16:54.952Z,24.37
2023-04-24T04:20:01.675Z,22.17
2023-04-24T04:23:07.870Z,19.82
2023-04-24T04:26:15.911Z,21.02
2023-04-24T04:29:30.239Z,18.12
2023-04-24T04:32:36.716Z,22.80
2023-04-24T04:35:42.760Z,16.57
2023-04-24T04:38:50.409Z,16.87
2023-04-24T04:42:00.679Z,22.25
2023-04-24T04:45:07.932Z,17.85
2023-04-24T04:48:16.528Z,22.93
2023-04-24T04:51:22.325Z,19.60
2023-04-24T04:54:28.768Z,33.25
2023-04-24T04:57:35.412Z,16.75
2023-04-24T05:00:44.775Z,16.23
2023-04-24T05:03:52.814Z,25.20
2023-04-24T05:06:59.833Z,24.63
2023-04-24T05:10:05.928Z,18.30
2023-04-24T05:13:13.997Z,21.27
2023-04-24T05:16:18.614Z,17.80
2023-04-24T05:19:26.312Z,17.27
2023-04-24T05:22:31.750Z,22.60
2023-04-24T05:25:39.754Z,27.82
2023-04-24T05:28:46.808Z,20.97
2023-04-24T05:31:53.980Z,13.05
2023-04-24T05:35:01.293Z,19.30
2023-04-24T05:38:09.462Z,14.68
2023-04-24T05:41:16.281Z,17.55
2023-04-24T05:44:21.671Z,10.48
2023-04-24T05:47:27.092Z,15.55
2023-04-24T05:50:32.505Z,17.92
2023-04-24T05:53:42.038Z,15.08
2023-04-24T05:56:47.922Z,15.53
2023-04-24T05:59:55.457Z,14.00
2023-04-24T06:03:03.574Z,31.20
2023-04-24T06:06:10.038Z,20.57
2023-04-24T06:09:16.810Z,11.75
2023-04-24T06:12:23.393Z,13.68
2023-04-24T06:15:31.375Z,17.17
2023-04-24T06:18:40.669Z,13.62
2023-04-24T06:21:48.487Z,16.32
2023-04-24T06:24:56.499Z,18.35
2023-04-24T06:28:03.261Z,20.68
2023-04-24T06:31:12.012Z,16.05
2023-04-24T06:34:17.943Z,19.60
2023-04-24T06:37:23.597Z,18.85
2023-04-24T06:40:29.577Z,17.73
2023-04-24T06:43:35.450Z,20.95
2023-04-24T06:46:42.040Z,11.45
2023-04-24T06:49:49.474Z,15.70
2023-04-24T06:52:57.299Z,14.50
2023-04-24T06:56:04.405Z,15.83
2023-04-24T06:59:10.959Z,21.82
2023-04-24T07:02:18.005Z,17.67
2023-04-24T07:05:27.316Z,17.10
2023-04-24T07:08:33.693Z,12.58
2023-04-24T07:11:41.974Z,10.28
2023-04-24T07:14:48.487Z,10.15
2023-04-24T07:17:54.192Z,9.78
2023-04-24T07:21:00.781Z,10.50
2023-04-24T07:24:13.163Z,9.95
2023-04-24T07:27:23.108Z,9.78
2023-04-24T07:30:31.724Z,14.20
2023-04-24T07:33:37.726Z,17.90
2023-04-24T07:36:42.910Z,11.33
2023-04-24T07:39:50.112Z,13.08
2023-04-24T07:42:59.197Z,11.50
2023-04-24T07:46:09.399Z,8.35
2023-04-24T07:49:17.055Z,12.15
2023-04-24T07:52:23.296Z,9.38
2023-04-24T07:55:28.560Z,11.18
2023-04-24T07:58:34.368Z,9.75
2023-04-24T08:01:39.400Z,9.15
2023-04-24T08:04:46.051Z,13.22
2023-04-24T08:07:54.918Z,11.88
2023-04-24T08:11:01.150Z,8.00
2023-04-24T08:14:06.994Z,9.70
2023-04-24T08:17:13.492Z,7.72
2023-04-24T08:20:23.278Z,9.28
2023-04-24T08:23:30.204Z,8.75
2023-04-24T08:26:36.928Z,8.85
2023-04-24T08:29:43.681Z,9.85
2023-04-24T08:32:49.091Z,12.50
2023-04-24T08:35:49.487Z,8.18
2023-04-24T08:38:55.891Z,9.70
2023-04-24T08:42:00.985Z,8.68
2023-04-24T08:45:06.688Z,7.00
2023-04-24T08:48:23.322Z,11.25
2023-04-24T08:51:25.788Z,8.45
2023-04-24T08:54:35.043Z,8.73
2023-04-24T08:57:43.673Z,7.67
2023-04-24T09:00:52.669Z,19.25
2023-04-24T09:03:59.012Z,8.35
2023-04-24T09:07:06.758Z,10.08
2023-04-24T09:10:12.626Z,7.70
2023-04-24T09:13:18.586Z,11.50
2023-04-24T09:16:26.602Z,10.78
2023-04-24T09:19:33.626Z,8.88
2023-04-24T09:22:40.440Z,6.12
2023-04-24T09:25:49.654Z,6.58
2023-04-24T09:28:57.274Z,6.97
2023-04-24T09:32:03.120Z,10.00
2023-04-24T09:35:31.304Z,9.93
2023-04-24T09:38:53.853Z,9.70
2023-04-24T09:42:11.111Z,8.28
2023-04-24T09:45:51.829Z,5.53
2023-04-24T09:48:59.667Z,12.47
2023-04-24T09:52:06.774Z,7.65
2023-04-24T09:55:14.088Z,8.45
2023-04-24T09:58:20.286Z,7.28
2023-04-24T10:01:26.997Z,8.45
2023-04-24T10:04:38.183Z,7.97
2023-04-24T10:10:55.938Z,11.08
2023-04-24T10:14:01.774Z,11.18
2023-04-24T10:17:09.758Z,14.18
2023-04-24T10:20:16.747Z,12.25
2023-04-24T10:23:26.825Z,13.70
2023-04-24T10:26:34.444Z,7.12
2023-04-24T10:29:42.917Z,7.35
2023-04-24T10:32:49.836Z,10.20
2023-04-24T10:35:59.410Z,12.43
2023-04-24T10:39:05.299Z,7.65
2023-04-24T10:42:10.586Z,13.35
2023-04-24T10:45:21.692Z,14.93
2023-04-24T10:51:39.834Z,10.98
2023-04-24T10:55:03.838Z,9.28
2023-04-24T10:58:19.842Z,10.20
2023-04-24T11:01:26.939Z,12.93
2023-04-24T11:04:46.393Z,9.83
2023-04-24T11:08:30.426Z,10.28
2023-04-24T11:11:36.800Z,11.45
2023-04-24T11:14:41.548Z,7.08
2023-04-24T11:17:52.959Z,8.75
2023-04-24T11:21:00.211Z,12.23
2023-04-24T11:24:07.982Z,6.85
2023-04-24T11:27:23.644Z,10.90
2023-04-24T11:30:30.878Z,10.15
2023-04-24T11:33:36.441Z,5.58
2023-04-24T11:36:42.201Z,13.70
2023-04-24T11:39:52.643Z,11.15
2023-04-24T11:43:08.158Z,10.68
2023-04-24T11:46:15.615Z,13.18
2023-04-24T11:49:20.324Z,24.45
2023-04-24T11:52:26.493Z,9.33
2023-04-24T11:55:37.178Z,10.80
2023-04-24T11:58:42.527Z,10.05
2023-04-24T12:01:57.717Z,14.00
2023-04-24T12:05:04.360Z,5.35
2023-04-24T12:08:13.378Z,8.13
2023-04-24T12:11:20.798Z,5.78
2023-04-24T12:14:29.313Z,11.95
2023-04-24T12:17:42.113Z,5.78
2023-04-24T12:20:49.247Z,5.35
2023-04-24T12:23:56.054Z,7.40
2023-04-24T12:27:02.785Z,9.20
2023-04-24T12:30:16.750Z,8.73
2023-04-24T12:33:28.110Z,5.72
2023-04-24T12:36:37.328Z,7.65
2023-04-24T12:39:42.535Z,9.23
2023-04-24T12:42:47.924Z,7.50
2023-04-24T12:45:55.696Z,10.20
2023-04-24T12:49:02.021Z,8.70
2023-04-24T12:52:07.825Z,8.20
2023-04-24T12:55:17.846Z,13.88
2023-04-24T12:58:24.912Z,17.10
2023-04-24T13:01:37.053Z,8.10
2023-04-24T13:04:43.748Z,8.90
2023-04-24T13:07:50.248Z,11.55
2023-04-24T13:10:58.080Z,17.60
2023-04-24T13:14:03.793Z,11.43
2023-04-24T13:17:09.378Z,9.40
2023-04-24T13:20:14.508Z,5.85
2023-04-24T13:23:23.236Z,10.05
2023-04-24T13:26:29.416Z,15.60
2023-04-24T13:29:34.843Z,10.48
2023-04-24T13:32:43.301Z,11.15
2023-04-24T13:35:49.615Z,8.80
2023-04-24T13:38:56.011Z,8.95
2023-04-24T13:42:04.875Z,14.70
2023-04-24T13:45:23.764Z,8.63
2023-04-24T13:48:16.792Z,9.73
2023-04-24T13:51:23.094Z,14.60
2023-04-24T13:54:30.175Z,8.03
2023-04-24T13:57:36.603Z,4.53
2023-04-24T14:00:35.605Z,4.92
2023-04-24T14:03:28.984Z,6.92
2023-04-24T14:06:35.202Z,4.08
2023-04-24T14:09:40.838Z,2.55
2023-04-24T14:12:48.006Z,5.72
2023-04-24T14:15:54.528Z,2.25
2023-04-24T14:19:01.512Z,3.83
2023-04-24T14:22:08.142Z,3.10
2023-04-24T14:25:15.590Z,2.42
2023-04-24T14:28:23.595Z,7.10
2023-04-24T14:31:29.082Z,7.67
2023-04-24T14:34:34.761Z,5.62
2023-04-24T14:37:40.135Z,7.28
2023-04-24T14:41:05.411Z,9.08
2023-04-24T14:43:55.618Z,5.78
2023-04-24T14:47:03.579Z,7.37
2023-04-24T14:50:08.539Z,5.60
2023-04-24T14:53:15.671Z,9.98
2023-04-24T14:56:20.569Z,8.40
2023-04-24T14:59:25.710Z,11.97
2023-04-24T15:02:31.425Z,6.15
2023-04-24T15:05:36.986Z,15.83
2023-04-24T15:08:43.570Z,6.45
2023-04-24T15:11:50.217Z,5.85
2023-04-24T15:14:55.372Z,19.40
2023-04-24T15:18:00.083Z,19.17
2023-04-24T15:21:08.056Z,17.05
2023-04-24T15:24:14.723Z,9.70
2023-04-24T15:27:19.968Z,6.70
2023-04-24T15:30:25.851Z,5.60
2023-04-24T15:33:34.158Z,3.75
2023-04-24T15:36:40.978Z,4.30
2023-04-24T15:39:47.305Z,7.95
2023-04-24T15:42:53.528Z,10.32
2023-04-24T15:45:59.670Z,10.08
2023-04-24T15:49:05.462Z,15.35
2023-04-24T15:52:13.109Z,17.17
2023-04-24T15:55:19.099Z,12.47
2023-04-24T15:58:25.060Z,11.05
2023-04-24T16:01:31.523Z,8.18
2023-04-24T16:04:37.227Z,4.83
2023-04-24T16:07:43.890Z,4.97
2023-04-24T16:10:51.560Z,3.62
2023-04-24T16:13:57.308Z,4.90
2023-04-24T16:17:06.225Z,3.75
2023-04-24T16:20:12.022Z,5.70
2023-04-24T16:23:18.245Z,3.67
2023-04-24T16:26:24.240Z,4.72
2023-04-24T16:29:30.963Z,7.33
2023-04-24T16:32:37.203Z,10.15
2023-04-24T16:35:42.499Z,8.73
2023-04-24T16:38:48.116Z,4.22
2023-04-24T16:41:59.073Z,9.60
2023-04-24T16:45:03.605Z,15.48
2023-04-24T16:48:11.814Z,12.25
2023-04-24T16:51:17.530Z,8.13
2023-04-24T16:54:24.028Z,6.60
2023-04-24T16:57:30.635Z,7.55
2023-04-24T17:00:28.959Z,7.75
2023-04-24T17:03:21.457Z,6.87
2023-04-24T17:06:29.418Z,5.50
2023-04-24T17:09:36.087Z,6.42
2023-04-24T17:12:41.387Z,3.62
2023-04-24T17:15:47.482Z,4.08
2023-04-24T17:18:53.813Z,5.08
2023-04-24T17:21:59.309Z,6.42
2023-04-24T17:25:05.910Z,7.53
2023-04-24T17:28:12.019Z,4.47
2023-04-24T17:31:21.260Z,7.15
2023-04-24T17:34:27.814Z,9.73
2023-04-24T17:37:33.193Z,8.20
2023-04-24T17:40:37.804Z,9.88
2023-04-24T17:43:44.651Z,10.93
2023-04-24T17:46:50.670Z,5.28
2023-04-24T17:49:58.759Z,10.82
2023-04-24T17:53:07.468Z,8.95
2023-04-24T17:56:14.918Z,13.38
2023-04-24T17:59:21.401Z,16.37
2023-04-24T18:02:28.699Z,13.22
2023-04-24T18:05:37.337Z,12.47
2023-04-24T18:08:44.703Z,15.60
2023-04-24T18:11:50.583Z,17.17
2023-04-24T18:15:10.416Z,14.60
2023-04-24T18:18:05.879Z,17.60
2023-04-24T18:21:12.767Z,16.55
2023-04-24T18:24:18.041Z,20.30
2023-04-24T18:27:25.064Z,18.52
2023-04-24T18:30:31.435Z,14.87
2023-04-24T18:33:36.768Z,11.57
2023-04-24T18:36:42.682Z,16.02
2023-04-24T18:39:49.673Z,14.87
2023-04-24T18:42:58.127Z,11.08
2023-04-24T18:46:04.077Z,9.13
2023-04-24T18:49:10.051Z,11.15
2023-04-24T18:52:17.273Z,12.50
2023-04-24T18:55:23.437Z,16.85
2023-04-24T18:58:28.811Z,9.78
2023-04-24T19:01:34.068Z,10.13
2023-04-24T19:04:39.771Z,8.00
2023-04-24T19:07:48.750Z,10.08
2023-04-24T19:10:49.985Z,10.65
2023-04-24T19:13:56.862Z,7.45
2023-04-24T19:17:02.406Z,10.45
2023-04-24T19:20:10.180Z,9.98
2023-04-24T19:23:16.901Z,6.72
2023-04-24T19:26:24.395Z,8.85
2023-04-24T19:29:29.806Z,8.73
2023-04-24T19:32:36.027Z,10.20
2023-04-24T19:35:41.363Z,9.23
2023-04-24T19:38:49.252Z,10.10
2023-04-24T19:41:56.651Z,10.72
2023-04-24T19:45:02.488Z,8.15
2023-04-24T19:48:08.614Z,8.45
2023-04-24T19:51:15.924Z,21.57
2023-04-24T19:54:22.825Z,12.15
2023-04-24T19:57:29.158Z,12.05
2023-04-24T20:00:35.201Z,11.68
2023-04-24T20:03:44.916Z,12.15
2023-04-24T20:06:51.434Z,11.38
2023-04-24T20:10:00.848Z,7.47
2023-04-24T20:13:10.057Z,10.13
2023-04-24T20:16:16.832Z,9.65
2023-04-24T20:19:23.639Z,11.55
2023-04-24T20:22:30.899Z,9.78
2023-04-24T20:25:38.122Z,13.72
2023-04-24T20:28:43.863Z,9.65
2023-04-24T20:31:50.908Z,14.13
2023-04-24T20:34:56.155Z,10.43
2023-04-24T20:38:02.986Z,8.45
2023-04-24T20:41:08.022Z,9.38
2023-04-24T20:44:13.420Z,8.98
2023-04-24T20:47:19.130Z,9.18
2023-04-24T20:50:25.674Z,12.37
2023-04-24T20:53:31.363Z,10.03
2023-04-24T20:56:37.707Z,12.40
2023-04-24T20:59:44.325Z,12.43
2023-04-24T21:02:50.095Z,7.65
2023-04-24T21:05:58.379Z,14.38
2023-04-24T21:09:06.849Z,9.90
2023-04-24T21:12:13.016Z,18.57
2023-04-24T21:15:17.909Z,14.95
2023-04-24T21:18:24.006Z,13.30
2023-04-24T21:21:31.981Z,14.63
2023-04-24T21:24:37.061Z,15.35
2023-04-24T21:27:42.971Z,15.80
2023-04-24T21:30:49.092Z,12.82
2023-04-24T21:33:56.882Z,12.58
2023-04-24T21:37:03.313Z,13.68
2023-04-24T21:40:11.842Z,14.60
2023-04-24T21:43:21.809Z,11.33
2023-04-24T21:46:25.075Z,12.10
2023-04-24T21:49:31.171Z,12.65
2023-04-24T21:52:36.919Z,13.70
2023-04-24T21:55:43.159Z,16.67
2023-04-24T21:58:50.188Z,18.32
2023-04-24T22:01:57.019Z,22.55
2023-04-24T22:05:04.189Z,23.25
2023-04-24T22:08:10.316Z,21.97
2023-04-24T22:11:26.595Z,15.43
2023-04-24T22:14:25.740Z,18.07
2023-04-24T22:17:33.947Z,15.45
2023-04-24T22:20:41.366Z,21.95
2023-04-24T22:23:49.241Z,27.62
2023-04-24T22:26:54.729Z,34.70
2023-04-24T22:30:00.565Z,34.23
2023-04-24T22:33:07.748Z,38.40
2023-04-24T22:36:14.381Z,36.68
2023-04-24T22:39:21.850Z,29.37
2023-04-24T22:42:29.396Z,28.40
2023-04-24T22:45:34.650Z,32.10
2023-04-24T22:48:43.432Z,24.43
2023-04-24T22:51:49.209Z,22.17
2023-04-24T22:54:54.738Z,25.62
2023-04-24T22:58:04.489Z,18.25
2023-04-24T23:01:11.307Z,22.93
2023-04-24T23:04:18.112Z,24.77
2023-04-24T23:07:24.554Z,23.80
2023-04-24T23:10:32.968Z,23.92
2023-04-24T23:13:39.478Z,23.52
2023-04-24T23:16:45.814Z,23.45
2023-04-24T23:19:51.505Z,23.02
2023-04-24T23:22:57.942Z,23.42
2023-04-24T23:26:04.004Z,17.45
2023-04-24T23:29:09.891Z,19.70
2023-04-24T23:32:16.005Z,19.05
2023-04-24T23:35:22.880Z,17.80
2023-04-24T23:38:34.053Z,19.27
2023-04-24T23:41:34.895Z,20.27
2023-04-24T23:44:40.139Z,20.95
2023-04-24T23:47:46.457Z,17.90
2023-04-24T23:50:54.643Z,17.73
2023-04-24T23:54:00.608Z,20.68
2023-04-24T23:57:06.860Z,18.10
